sensor_id;sensor_type;location;lat;lon;timestamp;P1;durP1;ratioP1;P2;durP2;ratioP2
16922;SDS011;8578;50.938;13.556;2023-01-08T00:01:13;6.43;;;4.10;;
16922;SDS011;8578;50.938;13.556;2023-01-08T00:03:40;8.90;;;4.57;;
16922;SDS011;8578;50.938;13.556;2023-01-08T00:06:09;7.73;;;4.03;;
16922;SDS011;8578;50.938;13.556;2023-01-08T00:08:38;5.77;;;3.90;;
16922;SDS011;8578;50.938;13.556;2023-01-08T00:11:06;6.37;;;3.67;;
16922;SDS011;8578;50.938;13.556;2023-01-08T00:13:34;6.10;;;3.90;;
16922;SDS011;8578;50.938;13.556;2023-01-08T00:16:02;5.93;;;3.80;;
16922;SDS011;8578;50.938;13.556;2023-01-08T00:18:31;6.73;;;4.07;;
16922;SDS011;8578;50.938;13.556;2023-01-08T00:20:59;5.27;;;3.80;;
16922;SDS011;8578;50.938;13.556;2023-01-08T00:23:27;6.20;;;4.00;;
16922;SDS011;8578;50.938;13.556;2023-01-08T00:25:56;5.20;;;3.47;;
16922;SDS011;8578;50.938;13.556;2023-01-08T00:28:29;4.70;;;3.13;;
16922;SDS011;8578;50.938;13.556;2023-01-08T00:30:59;5.77;;;3.30;;
16922;SDS011;8578;50.938;13.556;2023-01-08T00:33:29;4.90;;;3.30;;
16922;SDS011;8578;50.938;13.556;2023-01-08T00:35:56;5.77;;;4.03;;
16922;SDS011;8578;50.938;13.556;2023-01-08T00:38:24;5.97;;;4.10;;
16922;SDS011;8578;50.938;13.556;2023-01-08T00:40:52;7.20;;;4.50;;
16922;SDS011;8578;50.938;13.556;2023-01-08T00:43:21;7.00;;;4.47;;
16922;SDS011;8578;50.938;13.556;2023-01-08T00:45:49;5.77;;;4.07;;
16922;SDS011;8578;50.938;13.556;2023-01-08T00:48:19;8.00;;;5.00;;
16922;SDS011;8578;50.938;13.556;2023-01-08T00:50:47;6.73;;;4.60;;
16922;SDS011;8578;50.938;13.556;2023-01-08T00:53:15;9.90;;;8.13;;
16922;SDS011;8578;50.938;13.556;2023-01-08T00:55:42;11.60;;;9.00;;
16922;SDS011;8578;50.938;13.556;2023-01-08T00:58:10;7.27;;;5.30;;
16922;SDS011;8578;50.938;13.556;2023-01-08T01:00:39;7.30;;;5.17;;
16922;SDS011;8578;50.938;13.556;2023-01-08T01:03:06;7.33;;;4.80;;
16922;SDS011;8578;50.938;13.556;2023-01-08T01:05:34;9.97;;;5.10;;
16922;SDS011;8578;50.938;13.556;2023-01-08T01:08:01;9.13;;;5.97;;
16922;SDS011;8578;50.938;13.556;2023-01-08T01:10:29;11.17;;;6.07;;
16922;SDS011;8578;50.938;13.556;2023-01-08T01:12:56;7.47;;;4.47;;
16922;SDS011;8578;50.938;13.556;2023-01-08T01:15:24;5.03;;;3.40;;
16922;SDS011;8578;50.938;13.556;2023-01-08T01:17:53;5.13;;;3.33;;
16922;SDS011;8578;50.938;13.556;2023-01-08T01:20:21;5.83;;;3.20;;
16922;SDS011;8578;50.938;13.556;2023-01-08T01:22:49;7.47;;;3.37;;
16922;SDS011;8578;50.938;13.556;2023-01-08T01:25:16;9.13;;;3.17;;
16922;SDS011;8578;50.938;13.556;2023-01-08T01:27:44;4.73;;;3.10;;
16922;SDS011;8578;50.938;13.556;2023-01-08T01:30:12;3.27;;;2.30;;
16922;SDS011;8578;50.938;13.556;2023-01-08T01:32:39;3.93;;;2.73;;
16922;SDS011;8578;50.938;13.556;2023-01-08T01:35:09;4.33;;;2.83;;
16922;SDS011;8578;50.938;13.556;2023-01-08T01:37:36;5.93;;;2.63;;
16922;SDS011;8578;50.938;13.556;2023-01-08T01:40:04;3.43;;;2.53;;
16922;SDS011;8578;50.938;13.556;2023-01-08T01:42:32;3.53;;;2.23;;
16922;SDS011;8578;50.938;13.556;2023-01-08T01:45:13;4.30;;;2.50;;
16922;SDS011;8578;50.938;13.556;2023-01-08T01:47:42;4.90;;;2.33;;
16922;SDS011;8578;50.938;13.556;2023-01-08T01:50:13;5.27;;;2.30;;
16922;SDS011;8578;50.938;13.556;2023-01-08T01:52:43;3.20;;;2.50;;
16922;SDS011;8578;50.938;13.556;2023-01-08T01:55:12;3.80;;;2.40;;
16922;SDS011;8578;50.938;13.556;2023-01-08T01:57:40;2.97;;;2.00;;
16922;SDS011;8578;50.938;13.556;2023-01-08T02:00:09;2.40;;;1.83;;
16922;SDS011;8578;50.938;13.556;2023-01-08T02:02:37;3.43;;;2.20;;
16922;SDS011;8578;50.938;13.556;2023-01-08T02:05:05;2.70;;;1.80;;
16922;SDS011;8578;50.938;13.556;2023-01-08T02:07:36;3.20;;;1.73;;
16922;SDS011;8578;50.938;13.556;2023-01-08T02:10:09;3.33;;;1.70;;
16922;SDS011;8578;50.938;13.556;2023-01-08T02:12:37;4.20;;;1.90;;
16922;SDS011;8578;50.938;13.556;2023-01-08T02:15:10;1.97;;;1.33;;
16922;SDS011;8578;50.938;13.556;2023-01-08T02:17:43;2.93;;;1.83;;
16922;SDS011;8578;50.938;13.556;2023-01-08T02:20:12;2.47;;;1.60;;
16922;SDS011;8578;50.938;13.556;2023-01-08T02:22:47;4.73;;;1.80;;
16922;SDS011;8578;50.938;13.556;2023-01-08T02:25:19;3.00;;;1.60;;
16922;SDS011;8578;50.938;13.556;2023-01-08T02:27:51;4.00;;;1.60;;
16922;SDS011;8578;50.938;13.556;2023-01-08T02:30:19;3.33;;;1.90;;
16922;SDS011;8578;50.938;13.556;2023-01-08T02:32:47;2.67;;;1.73;;
16922;SDS011;8578;50.938;13.556;2023-01-08T02:35:17;3.60;;;1.63;;
16922;SDS011;8578;50.938;13.556;2023-01-08T02:38:20;2.77;;;1.90;;
16922;SDS011;8578;50.938;13.556;2023-01-08T02:40:51;2.57;;;1.73;;
16922;SDS011;8578;50.938;13.556;2023-01-08T02:43:22;3.73;;;2.20;;
16922;SDS011;8578;50.938;13.556;2023-01-08T02:45:53;3.90;;;2.30;;
16922;SDS011;8578;50.938;13.556;2023-01-08T02:48:23;3.40;;;2.33;;
16922;SDS011;8578;50.938;13.556;2023-01-08T02:50:58;3.10;;;2.37;;
16922;SDS011;8578;50.938;13.556;2023-01-08T02:53:27;4.63;;;2.53;;
16922;SDS011;8578;50.938;13.556;2023-01-08T02:55:56;4.77;;;2.87;;
16922;SDS011;8578;50.938;13.556;2023-01-08T02:58:26;4.93;;;2.80;;
16922;SDS011;8578;50.938;13.556;2023-01-08T03:00:53;5.27;;;3.20;;
16922;SDS011;8578;50.938;13.556;2023-01-08T03:03:22;5.43;;;2.87;;
16922;SDS011;8578;50.938;13.556;2023-01-08T03:05:51;4.87;;;3.00;;
16922;SDS011;8578;50.938;13.556;2023-01-08T03:08:19;6.80;;;3.53;;
16922;SDS011;8578;50.938;13.556;2023-01-08T03:10:47;4.13;;;2.90;;
16922;SDS011;8578;50.938;13.556;2023-01-08T03:13:18;5.80;;;3.30;;
16922;SDS011;8578;50.938;13.556;2023-01-08T03:15:50;5.00;;;3.37;;
16922;SDS011;8578;50.938;13.556;2023-01-08T03:18:20;6.70;;;3.33;;
16922;SDS011;8578;50.938;13.556;2023-01-08T03:20:50;4.53;;;2.77;;
16922;SDS011;8578;50.938;13.556;2023-01-08T03:23:18;5.00;;;3.10;;
16922;SDS011;8578;50.938;13.556;2023-01-08T03:25:47;4.47;;;2.77;;
16922;SDS011;8578;50.938;13.556;2023-01-08T03:28:15;6.03;;;3.17;;
16922;SDS011;8578;50.938;13.556;2023-01-08T03:30:44;4.87;;;2.70;;
16922;SDS011;8578;50.938;13.556;2023-01-08T03:33:14;5.40;;;3.13;;
16922;SDS011;8578;50.938;13.556;2023-01-08T03:35:42;5.70;;;3.13;;
16922;SDS011;8578;50.938;13.556;2023-01-08T03:38:13;4.77;;;3.20;;
16922;SDS011;8578;50.938;13.556;2023-01-08T03:40:42;5.80;;;3.33;;
16922;SDS011;8578;50.938;13.556;2023-01-08T03:43:11;6.13;;;3.13;;
16922;SDS011;8578;50.938;13.556;2023-01-08T03:45:39;4.07;;;2.70;;
16922;SDS011;8578;50.938;13.556;2023-01-08T03:48:08;5.43;;;2.97;;
16922;SDS011;8578;50.938;13.556;2023-01-08T03:50:38;5.50;;;3.17;;
16922;SDS011;8578;50.938;13.556;2023-01-08T03:53:06;4.93;;;3.00;;
16922;SDS011;8578;50.938;13.556;2023-01-08T03:55:34;4.80;;;3.20;;
16922;SDS011;8578;50.938;13.556;2023-01-08T03:58:01;5.37;;;3.33;;
16922;SDS011;8578;50.938;13.556;2023-01-08T04:00:29;5.87;;;3.40;;
16922;SDS011;8578;50.938;13.556;2023-01-08T04:02:56;5.20;;;3.13;;
16922;SDS011;8578;50.938;13.556;2023-01-08T04:05:23;4.43;;;3.27;;
16922;SDS011;8578;50.938;13.556;2023-01-08T04:07:54;5.50;;;3.50;;
16922;SDS011;8578;50.938;13.556;2023-01-08T04:10:22;7.27;;;4.37;;
16922;SDS011;8578;50.938;13.556;2023-01-08T04:12:50;5.23;;;3.50;;
16922;SDS011;8578;50.938;13.556;2023-01-08T04:15:17;6.07;;;3.53;;
16922;SDS011;8578;50.938;13.556;2023-01-08T04:17:45;5.47;;;3.50;;
16922;SDS011;8578;50.938;13.556;2023-01-08T04:20:12;7.33;;;3.60;;
16922;SDS011;8578;50.938;13.556;2023-01-08T04:22:39;6.13;;;3.50;;
16922;SDS011;8578;50.938;13.556;2023-01-08T04:25:08;7.80;;;3.50;;
16922;SDS011;8578;50.938;13.556;2023-01-08T04:27:36;5.30;;;3.43;;
16922;SDS011;8578;50.938;13.556;2023-01-08T04:30:03;5.50;;;3.50;;
16922;SDS011;8578;50.938;13.556;2023-01-08T04:32:31;6.43;;;3.80;;
16922;SDS011;8578;50.938;13.556;2023-01-08T04:34:58;4.40;;;3.20;;
16922;SDS011;8578;50.938;13.556;2023-01-08T04:37:26;8.10;;;3.67;;
16922;SDS011;8578;50.938;13.556;2023-01-08T04:39:53;6.07;;;3.47;;
16922;SDS011;8578;50.938;13.556;2023-01-08T04:42:22;5.77;;;2.90;;
16922;SDS011;8578;50.938;13.556;2023-01-08T04:44:49;6.20;;;3.80;;
16922;SDS011;8578;50.938;13.556;2023-01-08T04:47:17;5.97;;;3.70;;
16922;SDS011;8578;50.938;13.556;2023-01-08T04:49:44;5.97;;;3.80;;
16922;SDS011;8578;50.938;13.556;2023-01-08T04:52:12;8.10;;;3.70;;
16922;SDS011;8578;50.938;13.556;2023-01-08T04:54:39;6.60;;;3.63;;
16922;SDS011;8578;50.938;13.556;2023-01-08T04:57:07;6.50;;;3.70;;
16922;SDS011;8578;50.938;13.556;2023-01-08T04:59:36;6.20;;;3.87;;
16922;SDS011;8578;50.938;13.556;2023-01-08T05:02:03;7.87;;;4.20;;
16922;SDS011;8578;50.938;13.556;2023-01-08T05:04:30;8.13;;;4.37;;
16922;SDS011;8578;50.938;13.556;2023-01-08T05:06:58;6.80;;;4.60;;
16922;SDS011;8578;50.938;13.556;2023-01-08T05:09:25;7.47;;;4.33;;
16922;SDS011;8578;50.938;13.556;2023-01-08T05:11:52;8.77;;;4.70;;
16922;SDS011;8578;50.938;13.556;2023-01-08T05:14:20;6.87;;;4.10;;
16922;SDS011;8578;50.938;13.556;2023-01-08T05:16:48;7.53;;;4.50;;
16922;SDS011;8578;50.938;13.556;2023-01-08T05:19:16;6.97;;;4.60;;
16922;SDS011;8578;50.938;13.556;2023-01-08T05:21:43;7.43;;;4.60;;
16922;SDS011;8578;50.938;13.556;2023-01-08T05:24:10;8.67;;;4.63;;
16922;SDS011;8578;50.938;13.556;2023-01-08T05:26:38;6.40;;;4.03;;
16922;SDS011;8578;50.938;13.556;2023-01-08T05:29:05;8.47;;;5.13;;
16922;SDS011;8578;50.938;13.556;2023-01-08T05:31:32;6.93;;;4.83;;
16922;SDS011;8578;50.938;13.556;2023-01-08T05:34:01;10.30;;;5.37;;
16922;SDS011;8578;50.938;13.556;2023-01-08T05:36:28;7.17;;;5.27;;
16922;SDS011;8578;50.938;13.556;2023-01-08T05:38:56;6.60;;;4.50;;
16922;SDS011;8578;50.938;13.556;2023-01-08T05:41:24;7.27;;;4.63;;
16922;SDS011;8578;50.938;13.556;2023-01-08T05:43:51;7.67;;;4.90;;
16922;SDS011;8578;50.938;13.556;2023-01-08T05:46:19;6.70;;;4.40;;
16922;SDS011;8578;50.938;13.556;2023-01-08T05:48:46;8.27;;;4.43;;
16922;SDS011;8578;50.938;13.556;2023-01-08T05:51:15;6.90;;;4.60;;
16922;SDS011;8578;50.938;13.556;2023-01-08T05:53:42;5.70;;;4.10;;
16922;SDS011;8578;50.938;13.556;2023-01-08T05:56:10;6.50;;;4.27;;
16922;SDS011;8578;50.938;13.556;2023-01-08T05:58:37;6.90;;;4.37;;
16922;SDS011;8578;50.938;13.556;2023-01-08T06:01:06;5.83;;;3.97;;
16922;SDS011;8578;50.938;13.556;2023-01-08T06:03:33;8.03;;;4.90;;
16922;SDS011;8578;50.938;13.556;2023-01-08T06:06:02;5.93;;;3.90;;
16922;SDS011;8578;50.938;13.556;2023-01-08T06:08:31;6.03;;;3.93;;
16922;SDS011;8578;50.938;13.556;2023-01-08T06:10:59;7.60;;;4.03;;
16922;SDS011;8578;50.938;13.556;2023-01-08T06:13:27;6.30;;;4.03;;
16922;SDS011;8578;50.938;13.556;2023-01-08T06:15:54;13.23;;;6.17;;
16922;SDS011;8578;50.938;13.556;2023-01-08T06:18:23;14.27;;;10.20;;
16922;SDS011;8578;50.938;13.556;2023-01-08T06:20:51;9.53;;;6.50;;
16922;SDS011;8578;50.938;13.556;2023-01-08T06:23:18;25.83;;;17.63;;
16922;SDS011;8578;50.938;13.556;2023-01-08T06:25:51;28.17;;;16.67;;
16922;SDS011;8578;50.938;13.556;2023-01-08T06:28:20;41.53;;;26.97;;
16922;SDS011;8578;50.938;13.556;2023-01-08T06:30:47;65.30;;;37.63;;
16922;SDS011;8578;50.938;13.556;2023-01-08T06:33:15;35.97;;;19.57;;
16922;SDS011;8578;50.938;13.556;2023-01-08T06:35:45;48.97;;;24.97;;
16922;SDS011;8578;50.938;13.556;2023-01-08T06:38:12;77.73;;;35.50;;
16922;SDS011;8578;50.938;13.556;2023-01-08T06:40:40;25.40;;;12.37;;
16922;SDS011;8578;50.938;13.556;2023-01-08T06:43:08;23.93;;;11.40;;
16922;SDS011;8578;50.938;13.556;2023-01-08T06:45:36;60.60;;;30.47;;
16922;SDS011;8578;50.938;13.556;2023-01-08T06:48:04;37.00;;;21.57;;
16922;SDS011;8578;50.938;13.556;2023-01-08T06:50:32;84.93;;;43.23;;
16922;SDS011;8578;50.938;13.556;2023-01-08T06:53:00;8.40;;;6.00;;
16922;SDS011;8578;50.938;13.556;2023-01-08T06:55:27;8.77;;;6.57;;
16922;SDS011;8578;50.938;13.556;2023-01-08T06:57:54;7.50;;;3.93;;
16922;SDS011;8578;50.938;13.556;2023-01-08T07:00:24;5.50;;;4.07;;
16922;SDS011;8578;50.938;13.556;2023-01-08T07:02:52;5.73;;;4.13;;
16922;SDS011;8578;50.938;13.556;2023-01-08T07:05:20;7.53;;;4.70;;
16922;SDS011;8578;50.938;13.556;2023-01-08T07:07:48;7.00;;;4.70;;
16922;SDS011;8578;50.938;13.556;2023-01-08T07:10:15;9.53;;;4.73;;
16922;SDS011;8578;50.938;13.556;2023-01-08T07:12:45;8.10;;;4.40;;
16922;SDS011;8578;50.938;13.556;2023-01-08T07:15:12;11.30;;;5.00;;
16922;SDS011;8578;50.938;13.556;2023-01-08T07:17:40;11.30;;;6.03;;
16922;SDS011;8578;50.938;13.556;2023-01-08T07:20:09;11.17;;;6.30;;
16922;SDS011;8578;50.938;13.556;2023-01-08T07:22:36;12.60;;;6.57;;
16922;SDS011;8578;50.938;13.556;2023-01-08T07:25:04;11.60;;;6.03;;
16922;SDS011;8578;50.938;13.556;2023-01-08T07:27:32;11.97;;;7.17;;
16922;SDS011;8578;50.938;13.556;2023-01-08T07:30:00;12.17;;;6.33;;
16922;SDS011;8578;50.938;13.556;2023-01-08T07:32:27;11.33;;;7.00;;
16922;SDS011;8578;50.938;13.556;2023-01-08T07:34:54;12.27;;;7.00;;
16922;SDS011;8578;50.938;13.556;2023-01-08T07:37:25;10.97;;;6.50;;
16922;SDS011;8578;50.938;13.556;2023-01-08T07:39:53;12.43;;;6.93;;
16922;SDS011;8578;50.938;13.556;2023-01-08T07:42:20;11.33;;;6.13;;
16922;SDS011;8578;50.938;13.556;2023-01-08T07:44:48;14.07;;;7.70;;
16922;SDS011;8578;50.938;13.556;2023-01-08T07:47:15;11.67;;;7.23;;
16922;SDS011;8578;50.938;13.556;2023-01-08T07:49:42;15.97;;;8.93;;
16922;SDS011;8578;50.938;13.556;2023-01-08T07:52:10;16.27;;;9.07;;
16922;SDS011;8578;50.938;13.556;2023-01-08T07:54:39;12.47;;;7.07;;
16922;SDS011;8578;50.938;13.556;2023-01-08T07:57:06;12.10;;;6.03;;
16922;SDS011;8578;50.938;13.556;2023-01-08T07:59:33;11.40;;;6.60;;
16922;SDS011;8578;50.938;13.556;2023-01-08T08:02:01;11.37;;;6.00;;
16922;SDS011;8578;50.938;13.556;2023-01-08T08:04:28;13.73;;;5.80;;
16922;SDS011;8578;50.938;13.556;2023-01-08T08:06:56;10.03;;;5.67;;
16922;SDS011;8578;50.938;13.556;2023-01-08T08:09:23;9.70;;;5.73;;
16922;SDS011;8578;50.938;13.556;2023-01-08T08:11:52;10.30;;;5.40;;
16922;SDS011;8578;50.938;13.556;2023-01-08T08:14:20;9.23;;;5.70;;
16922;SDS011;8578;50.938;13.556;2023-01-08T08:16:47;10.90;;;5.60;;
16922;SDS011;8578;50.938;13.556;2023-01-08T08:19:15;10.37;;;5.83;;
16922;SDS011;8578;50.938;13.556;2023-01-08T08:21:42;8.57;;;5.03;;
16922;SDS011;8578;50.938;13.556;2023-01-08T08:24:10;9.67;;;5.67;;
16922;SDS011;8578;50.938;13.556;2023-01-08T08:26:37;15.17;;;7.63;;
16922;SDS011;8578;50.938;13.556;2023-01-08T08:29:06;36.60;;;14.97;;
16922;SDS011;8578;50.938;13.556;2023-01-08T08:31:33;48.07;;;18.73;;
16922;SDS011;8578;50.938;13.556;2023-01-08T08:34:01;25.17;;;12.67;;
16922;SDS011;8578;50.938;13.556;2023-01-08T08:36:28;35.47;;;16.67;;
16922;SDS011;8578;50.938;13.556;2023-01-08T08:38:56;49.57;;;23.90;;
16922;SDS011;8578;50.938;13.556;2023-01-08T08:41:23;33.27;;;16.00;;
16922;SDS011;8578;50.938;13.556;2023-01-08T08:43:51;55.87;;;24.63;;
16922;SDS011;8578;50.938;13.556;2023-01-08T08:46:19;23.03;;;11.57;;
16922;SDS011;8578;50.938;13.556;2023-01-08T08:48:47;66.20;;;31.87;;
16922;SDS011;8578;50.938;13.556;2023-01-08T08:51:14;38.87;;;19.60;;
16922;SDS011;8578;50.938;13.556;2023-01-08T08:53:42;33.53;;;16.97;;
16922;SDS011;8578;50.938;13.556;2023-01-08T08:56:09;50.70;;;22.40;;
16922;SDS011;8578;50.938;13.556;2023-01-08T08:58:36;18.60;;;9.73;;
16922;SDS011;8578;50.938;13.556;2023-01-08T09:01:06;30.13;;;14.27;;
16922;SDS011;8578;50.938;13.556;2023-01-08T09:03:35;101.37;;;36.53;;
16922;SDS011;8578;50.938;13.556;2023-01-08T09:06:03;21.83;;;11.17;;
16922;SDS011;8578;50.938;13.556;2023-01-08T09:08:31;39.47;;;21.07;;
16922;SDS011;8578;50.938;13.556;2023-01-08T09:10:58;24.53;;;12.73;;
16922;SDS011;8578;50.938;13.556;2023-01-08T09:13:28;9.97;;;6.20;;
16922;SDS011;8578;50.938;13.556;2023-01-08T09:15:56;8.33;;;4.90;;
16922;SDS011;8578;50.938;13.556;2023-01-08T09:18:24;8.47;;;4.90;;
16922;SDS011;8578;50.938;13.556;2023-01-08T09:20:53;6.43;;;4.23;;
16922;SDS011;8578;50.938;13.556;2023-01-08T09:23:20;7.10;;;4.40;;
16922;SDS011;8578;50.938;13.556;2023-01-08T09:25:47;9.40;;;4.80;;
16922;SDS011;8578;50.938;13.556;2023-01-08T09:28:15;8.30;;;4.97;;
16922;SDS011;8578;50.938;13.556;2023-01-08T09:30:43;7.63;;;4.33;;
16922;SDS011;8578;50.938;13.556;2023-01-08T09:33:10;7.70;;;4.40;;
16922;SDS011;8578;50.938;13.556;2023-01-08T09:35:38;8.93;;;4.50;;
16922;SDS011;8578;50.938;13.556;2023-01-08T09:38:07;7.17;;;4.23;;
16922;SDS011;8578;50.938;13.556;2023-01-08T09:40:36;7.53;;;4.03;;
16922;SDS011;8578;50.938;13.556;2023-01-08T09:43:03;6.90;;;3.80;;
16922;SDS011;8578;50.938;13.556;2023-01-08T09:45:32;10.30;;;4.17;;
16922;SDS011;8578;50.938;13.556;2023-01-08T09:48:02;7.63;;;4.60;;
16922;SDS011;8578;50.938;13.556;2023-01-08T09:50:31;7.03;;;4.23;;
16922;SDS011;8578;50.938;13.556;2023-01-08T09:52:59;8.37;;;4.83;;
16922;SDS011;8578;50.938;13.556;2023-01-08T09:55:30;11.40;;;5.00;;
16922;SDS011;8578;50.938;13.556;2023-01-08T09:57:59;9.57;;;5.30;;
16922;SDS011;8578;50.938;13.556;2023-01-08T10:00:29;9.47;;;5.27;;
16922;SDS011;8578;50.938;13.556;2023-01-08T10:02:57;6.60;;;4.07;;
16922;SDS011;8578;50.938;13.556;2023-01-08T10:05:25;8.10;;;4.53;;
16922;SDS011;8578;50.938;13.556;2023-01-08T10:07:53;6.93;;;4.57;;
16922;SDS011;8578;50.938;13.556;2023-01-08T10:10:21;8.00;;;4.40;;
16922;SDS011;8578;50.938;13.556;2023-01-08T10:12:50;8.13;;;4.47;;
16922;SDS011;8578;50.938;13.556;2023-01-08T10:15:19;6.37;;;3.93;;
16922;SDS011;8578;50.938;13.556;2023-01-08T10:17:48;7.60;;;4.43;;
16922;SDS011;8578;50.938;13.556;2023-01-08T10:20:17;7.70;;;4.83;;
16922;SDS011;8578;50.938;13.556;2023-01-08T10:22:45;7.90;;;4.33;;
16922;SDS011;8578;50.938;13.556;2023-01-08T10:25:14;7.97;;;5.00;;
16922;SDS011;8578;50.938;13.556;2023-01-08T10:27:46;9.00;;;5.30;;
16922;SDS011;8578;50.938;13.556;2023-01-08T10:30:16;7.13;;;4.90;;
16922;SDS011;8578;50.938;13.556;2023-01-08T10:32:47;8.27;;;4.50;;
16922;SDS011;8578;50.938;13.556;2023-01-08T10:35:16;8.47;;;5.20;;
16922;SDS011;8578;50.938;13.556;2023-01-08T10:37:43;11.47;;;6.80;;
16922;SDS011;8578;50.938;13.556;2023-01-08T10:40:17;9.30;;;5.63;;
16922;SDS011;8578;50.938;13.556;2023-01-08T10:42:47;7.80;;;5.10;;
16922;SDS011;8578;50.938;13.556;2023-01-08T10:45:17;9.53;;;4.70;;
16922;SDS011;8578;50.938;13.556;2023-01-08T10:47:45;8.87;;;4.80;;
16922;SDS011;8578;50.938;13.556;2023-01-08T10:50:15;7.10;;;4.70;;
16922;SDS011;8578;50.938;13.556;2023-01-08T10:52:50;8.93;;;4.47;;
16922;SDS011;8578;50.938;13.556;2023-01-08T10:55:20;6.90;;;4.20;;
16922;SDS011;8578;50.938;13.556;2023-01-08T10:57:53;5.30;;;3.30;;
16922;SDS011;8578;50.938;13.556;2023-01-08T11:00:23;8.43;;;3.93;;
16922;SDS011;8578;50.938;13.556;2023-01-08T11:02:50;7.33;;;4.27;;
16922;SDS011;8578;50.938;13.556;2023-01-08T11:05:18;5.90;;;3.87;;
16922;SDS011;8578;50.938;13.556;2023-01-08T11:07:50;7.43;;;3.77;;
16922;SDS011;8578;50.938;13.556;2023-01-08T11:10:19;6.53;;;4.00;;
16922;SDS011;8578;50.938;13.556;2023-01-08T11:12:47;7.77;;;4.13;;
16922;SDS011;8578;50.938;13.556;2023-01-08T11:15:27;5.90;;;3.50;;
16922;SDS011;8578;50.938;13.556;2023-01-08T11:18:02;9.67;;;5.60;;
16922;SDS011;8578;50.938;13.556;2023-01-08T11:20:31;10.17;;;6.00;;
16922;SDS011;8578;50.938;13.556;2023-01-08T11:23:03;6.80;;;4.43;;
16922;SDS011;8578;50.938;13.556;2023-01-08T11:25:30;13.80;;;8.27;;
16922;SDS011;8578;50.938;13.556;2023-01-08T11:27:58;9.43;;;5.10;;
16922;SDS011;8578;50.938;13.556;2023-01-08T11:30:26;6.13;;;4.47;;
16922;SDS011;8578;50.938;13.556;2023-01-08T11:32:59;9.07;;;5.33;;
16922;SDS011;8578;50.938;13.556;2023-01-08T11:35:30;5.90;;;3.43;;
16922;SDS011;8578;50.938;13.556;2023-01-08T11:37:59;6.17;;;3.30;;
16922;SDS011;8578;50.938;13.556;2023-01-08T11:40:30;5.70;;;3.30;;
16922;SDS011;8578;50.938;13.556;2023-01-08T11:43:03;6.30;;;4.13;;
16922;SDS011;8578;50.938;13.556;2023-01-08T11:45:39;6.73;;;3.80;;
16922;SDS011;8578;50.938;13.556;2023-01-08T11:48:21;6.63;;;3.67;;
16922;SDS011;8578;50.938;13.556;2023-01-08T11:50:53;5.30;;;3.50;;
16922;SDS011;8578;50.938;13.556;2023-01-08T11:53:23;6.37;;;3.33;;
16922;SDS011;8578;50.938;13.556;2023-01-08T11:55:57;5.23;;;3.20;;
16922;SDS011;8578;50.938;13.556;2023-01-08T11:58:31;5.20;;;3.33;;
16922;SDS011;8578;50.938;13.556;2023-01-08T12:01:14;9.30;;;3.70;;
16922;SDS011;8578;50.938;13.556;2023-01-08T12:03:46;6.07;;;3.77;;
16922;SDS011;8578;50.938;13.556;2023-01-08T12:06:19;7.03;;;3.93;;
16922;SDS011;8578;50.938;13.556;2023-01-08T12:08:50;6.60;;;4.13;;
16922;SDS011;8578;50.938;13.556;2023-01-08T12:11:19;7.97;;;4.57;;
16922;SDS011;8578;50.938;13.556;2023-01-08T12:13:54;8.20;;;4.30;;
16922;SDS011;8578;50.938;13.556;2023-01-08T12:16:31;7.00;;;4.30;;
16922;SDS011;8578;50.938;13.556;2023-01-08T12:19:07;6.37;;;4.30;;
16922;SDS011;8578;50.938;13.556;2023-01-08T12:21:42;7.63;;;4.40;;
16922;SDS011;8578;50.938;13.556;2023-01-08T12:24:14;5.40;;;3.50;;
16922;SDS011;8578;50.938;13.556;2023-01-08T12:26:46;6.07;;;3.33;;
16922;SDS011;8578;50.938;13.556;2023-01-08T12:29:28;6.57;;;3.50;;
16922;SDS011;8578;50.938;13.556;2023-01-08T12:32:09;7.57;;;4.00;;
16922;SDS011;8578;50.938;13.556;2023-01-08T12:34:44;8.97;;;4.00;;
16922;SDS011;8578;50.938;13.556;2023-01-08T12:37:13;5.40;;;3.13;;
16922;SDS011;8578;50.938;13.556;2023-01-08T12:39:44;8.13;;;3.83;;
16922;SDS011;8578;50.938;13.556;2023-01-08T12:42:15;6.77;;;3.43;;
16922;SDS011;8578;50.938;13.556;2023-01-08T12:44:43;6.27;;;3.50;;
16922;SDS011;8578;50.938;13.556;2023-01-08T12:47:15;6.87;;;3.70;;
16922;SDS011;8578;50.938;13.556;2023-01-08T12:49:43;6.73;;;3.67;;
16922;SDS011;8578;50.938;13.556;2023-01-08T12:52:14;6.70;;;3.73;;
16922;SDS011;8578;50.938;13.556;2023-01-08T12:54:44;6.70;;;3.40;;
16922;SDS011;8578;50.938;13.556;2023-01-08T12:57:15;5.13;;;3.40;;
16922;SDS011;8578;50.938;13.556;2023-01-08T12:59:44;5.13;;;3.17;;
16922;SDS011;8578;50.938;13.556;2023-01-08T13:02:17;4.03;;;2.83;;
16922;SDS011;8578;50.938;13.556;2023-01-08T13:04:50;6.53;;;3.33;;
16922;SDS011;8578;50.938;13.556;2023-01-08T13:07:18;5.93;;;3.13;;
16922;SDS011;8578;50.938;13.556;2023-01-08T13:09:52;5.67;;;2.93;;
16922;SDS011;8578;50.938;13.556;2023-01-08T13:12:23;5.40;;;3.20;;
16922;SDS011;8578;50.938;13.556;2023-01-08T13:14:52;5.50;;;3.20;;
16922;SDS011;8578;50.938;13.556;2023-01-08T13:17:22;4.13;;;2.73;;
16922;SDS011;8578;50.938;13.556;2023-01-08T13:19:51;6.00;;;3.10;;
16922;SDS011;8578;50.938;13.556;2023-01-08T13:22:23;5.23;;;3.20;;
16922;SDS011;8578;50.938;13.556;2023-01-08T13:24:51;5.17;;;2.87;;
16922;SDS011;8578;50.938;13.556;2023-01-08T13:27:26;5.00;;;2.60;;
16922;SDS011;8578;50.938;13.556;2023-01-08T13:29:54;5.70;;;3.10;;
16922;SDS011;8578;50.938;13.556;2023-01-08T13:32:26;4.47;;;2.60;;
16922;SDS011;8578;50.938;13.556;2023-01-08T13:35:01;4.40;;;2.80;;
16922;SDS011;8578;50.938;13.556;2023-01-08T13:37:28;4.57;;;3.00;;
16922;SDS011;8578;50.938;13.556;2023-01-08T13:39:55;4.33;;;3.03;;
16922;SDS011;8578;50.938;13.556;2023-01-08T13:42:23;4.97;;;2.83;;
16922;SDS011;8578;50.938;13.556;2023-01-08T13:44:56;4.80;;;2.60;;
16922;SDS011;8578;50.938;13.556;2023-01-08T13:47:28;3.00;;;2.47;;
16922;SDS011;8578;50.938;13.556;2023-01-08T13:49:56;5.10;;;2.70;;
16922;SDS011;8578;50.938;13.556;2023-01-08T13:52:29;4.70;;;2.40;;
16922;SDS011;8578;50.938;13.556;2023-01-08T13:54:57;6.20;;;3.27;;
16922;SDS011;8578;50.938;13.556;2023-01-08T13:57:25;6.07;;;3.53;;
16922;SDS011;8578;50.938;13.556;2023-01-08T13:59:57;11.37;;;5.53;;
16922;SDS011;8578;50.938;13.556;2023-01-08T14:02:27;8.77;;;4.53;;
16922;SDS011;8578;50.938;13.556;2023-01-08T14:04:56;12.17;;;7.10;;
16922;SDS011;8578;50.938;13.556;2023-01-08T14:07:24;11.60;;;6.53;;
16922;SDS011;8578;50.938;13.556;2023-01-08T14:09:52;8.10;;;4.70;;
16922;SDS011;8578;50.938;13.556;2023-01-08T14:12:20;8.67;;;5.17;;
16922;SDS011;8578;50.938;13.556;2023-01-08T14:14:48;6.70;;;3.40;;
16922;SDS011;8578;50.938;13.556;2023-01-08T14:17:17;6.50;;;3.40;;
16922;SDS011;8578;50.938;13.556;2023-01-08T14:19:46;4.87;;;3.23;;
16922;SDS011;8578;50.938;13.556;2023-01-08T14:22:17;7.80;;;4.13;;
16922;SDS011;8578;50.938;13.556;2023-01-08T14:24:47;6.07;;;3.17;;
16922;SDS011;8578;50.938;13.556;2023-01-08T14:27:22;6.63;;;3.83;;
16922;SDS011;8578;50.938;13.556;2023-01-08T14:29:49;5.93;;;3.63;;
16922;SDS011;8578;50.938;13.556;2023-01-08T14:32:17;5.30;;;3.20;;
16922;SDS011;8578;50.938;13.556;2023-01-08T14:34:47;4.10;;;2.37;;
16922;SDS011;8578;50.938;13.556;2023-01-08T14:37:15;5.77;;;2.87;;
16922;SDS011;8578;50.938;13.556;2023-01-08T14:39:43;4.17;;;2.37;;
16922;SDS011;8578;50.938;13.556;2023-01-08T14:42:12;3.53;;;2.20;;
16922;SDS011;8578;50.938;13.556;2023-01-08T14:44:58;5.17;;;2.60;;
16922;SDS011;8578;50.938;13.556;2023-01-08T14:47:28;4.40;;;2.20;;
16922;SDS011;8578;50.938;13.556;2023-01-08T14:49:57;4.60;;;2.43;;
16922;SDS011;8578;50.938;13.556;2023-01-08T14:52:25;4.03;;;1.83;;
16922;SDS011;8578;50.938;13.556;2023-01-08T14:54:53;5.33;;;2.80;;